Accueil
METAR-TAF:

METAR-TAF

Aéroports :

Aéroport Sandro-Pertini de Turin Caselle

Turin, Italie

latitude: 45-13N, longitude: 007-39E, altitude: 301 m

Observation

Le bulletin a été fait il y a 31 minutes, à 19:50 UTC
Vent 3 kt de nord
Température 6°C
Humidité 70%
Pression 1022 hPa
Visibilité 10 km ou plus
Nuages fragmentés à une hauteur de 5000 ft

METAR: LIMF 311950Z 35003KT 9999 BKN050 06/01 Q1022

Heure: 22:21 (20:21 UTC)

Prévision

Le bulletin a été fait il y a 3 heures et 21 minutes, à 17:00 UTC
Prévision valable du 31 à 18 UTC au 01 à 18 UTC
Vent 5 kt de direction variable
Visibilité: 8000 m
Nuages fragmentés à une hauteur de 1500 ft

TAF: LIMF 311700Z 3118/0118 VRB05KT 8000 BKN015

Observations et prévisions météorologiques de plus de 4000 aéroports (messages METAR et TAF).

Les stations disponibles sont représentées par des disques jaunes et rouges sur la carte.

Passer la souris dessus pour voir le nom de la station.

Cliquer dessus pour voir les observations et prévisions météorologiques.

Pour changer de carte: cliquez sur les boutons verts avec une croix noire pour zoomer, sur le bouton vert avec un tiret pour effectuer un zoom arrière, ou sur les flèches vertes pour les cartes adjacentes.


METAR-TAF: